createdAt,value
2023-03-06T00:00:38.929Z,97551.75
2023-03-06T00:03:17.853Z,97552.45
2023-03-06T00:05:45.477Z,97552.98
2023-03-06T00:08:13.102Z,97552.33
2023-03-06T00:10:40.783Z,97551.35
2023-03-06T00:13:13.250Z,97546.17
2023-03-06T00:15:41.544Z,97543.67
2023-03-06T00:18:09.506Z,97544.55
2023-03-06T00:20:39.731Z,97544.58
2023-03-06T00:23:08.560Z,97536.54
2023-03-06T00:25:36.374Z,97533.57
2023-03-06T00:28:05.067Z,97532.76
2023-03-06T00:30:32.748Z,97531.76
2023-03-06T00:33:00.310Z,97531.13
2023-03-06T00:35:27.954Z,97532.00
2023-03-06T00:37:55.513Z,97535.55
2023-03-06T00:40:23.173Z,97533.56
2023-03-06T00:42:50.765Z,97530.55
2023-03-06T00:45:18.362Z,97530.71
2023-03-06T00:47:45.965Z,97532.25
2023-03-06T00:50:13.513Z,97535.96
2023-03-06T00:52:41.092Z,97532.27
2023-03-06T00:55:09.925Z,97527.60
2023-03-06T00:57:37.833Z,97526.10
2023-03-06T01:00:06.271Z,97531.82
2023-03-06T01:02:34.065Z,97533.67
2023-03-06T01:05:02.214Z,97530.33
2023-03-06T01:07:29.755Z,97531.35
2023-03-06T01:09:57.235Z,97531.34
2023-03-06T01:12:24.880Z,97525.82
2023-03-06T01:14:52.457Z,97525.50
2023-03-06T01:17:20.062Z,97529.36
2023-03-06T01:19:47.655Z,97536.59
2023-03-06T01:22:15.179Z,97541.08
2023-03-06T01:24:42.829Z,97539.89
2023-03-06T01:27:10.433Z,97540.71
2023-03-06T01:29:38.005Z,97541.55
2023-03-06T01:32:05.909Z,97543.56
2023-03-06T01:34:33.570Z,97540.39
2023-03-06T01:37:01.112Z,97541.08
2023-03-06T01:39:28.670Z,97537.75
2023-03-06T01:41:56.219Z,97537.59
2023-03-06T01:44:23.917Z,97535.76
2023-03-06T01:46:51.470Z,97538.45
2023-03-06T01:49:22.008Z,97534.45
2023-03-06T01:51:49.468Z,97533.30
2023-03-06T01:54:28.526Z,97521.92
2023-03-06T01:57:02.166Z,97525.33
2023-03-06T01:59:30.364Z,97524.91
2023-03-06T02:01:59.724Z,97520.95
2023-03-06T02:04:28.222Z,97517.63
2023-03-06T02:06:58.480Z,97511.81
2023-03-06T02:09:27.146Z,97510.84
2023-03-06T02:11:54.710Z,97513.34
2023-03-06T02:14:22.457Z,97511.16
2023-03-06T02:16:51.101Z,97508.45
2023-03-06T02:19:30.262Z,97512.08
2023-03-06T02:21:57.883Z,97509.84
2023-03-06T02:24:45.563Z,97510.45
2023-03-06T02:27:14.649Z,97506.23
2023-03-06T02:29:43.898Z,97504.52
2023-03-06T02:32:11.587Z,97497.11
2023-03-06T02:34:39.115Z,97496.08
2023-03-06T02:37:11.099Z,97496.22
2023-03-06T02:39:43.155Z,97495.17
2023-03-06T02:42:17.284Z,97497.84
2023-03-06T02:44:45.312Z,97505.33
2023-03-06T02:47:12.870Z,97503.64
2023-03-06T02:49:40.422Z,97496.38
2023-03-06T02:52:08.081Z,97494.98
2023-03-06T02:54:35.616Z,97498.95
2023-03-06T02:57:03.270Z,97500.04
2023-03-06T02:59:30.872Z,97497.45
2023-03-06T03:01:58.595Z,97496.38
2023-03-06T03:04:26.352Z,97497.34
2023-03-06T03:06:53.962Z,97497.62
2023-03-06T03:09:21.538Z,97499.44
2023-03-06T03:11:49.047Z,97497.89
2023-03-06T03:14:16.607Z,97495.52
2023-03-06T03:16:44.260Z,97495.50
2023-03-06T03:19:11.830Z,97499.83
2023-03-06T03:21:40.854Z,97499.14
2023-03-06T03:24:08.497Z,97496.79
2023-03-06T03:26:36.063Z,97495.62
2023-03-06T03:29:04.144Z,97495.45
2023-03-06T03:31:32.644Z,97485.21
2023-03-06T03:34:00.288Z,97482.70
2023-03-06T03:36:28.264Z,97480.19
2023-03-06T03:38:55.796Z,97476.67
2023-03-06T03:41:23.683Z,97475.84
2023-03-06T03:43:51.241Z,97473.33
2023-03-06T03:46:18.846Z,97475.84
2023-03-06T03:48:46.461Z,97471.49
2023-03-06T03:51:14.461Z,97471.52
2023-03-06T03:53:42.996Z,97471.36
2023-03-06T03:56:11.344Z,97466.36
2023-03-06T03:58:38.937Z,97462.23
2023-03-06T04:01:06.924Z,97458.61
2023-03-06T04:03:34.653Z,97456.86
2023-03-06T04:06:02.375Z,97456.10
2023-03-06T04:08:29.888Z,97450.33
2023-03-06T04:10:57.489Z,97449.42
2023-03-06T04:13:25.168Z,97447.86
2023-03-06T04:15:54.198Z,97449.65
2023-03-06T04:18:22.645Z,97450.44
2023-03-06T04:20:50.533Z,97454.39
2023-03-06T04:23:18.786Z,97450.16
2023-03-06T04:25:46.462Z,97445.89
2023-03-06T04:28:14.357Z,97441.64
2023-03-06T04:30:42.174Z,97444.23
2023-03-06T04:33:09.952Z,97442.11
2023-03-06T04:35:37.666Z,97441.86
2023-03-06T04:38:05.644Z,97437.48
2023-03-06T04:40:35.280Z,97437.94
2023-03-06T04:43:04.164Z,97441.40
2023-03-06T04:45:34.442Z,97439.30
2023-03-06T04:48:02.309Z,97437.23
2023-03-06T04:50:30.442Z,97437.12
2023-03-06T04:53:02.608Z,97438.17
2023-03-06T04:55:30.545Z,97437.88
2023-03-06T04:57:58.254Z,97436.23
2023-03-06T05:00:27.515Z,97434.22
2023-03-06T05:02:55.084Z,97430.88
2023-03-06T05:05:22.770Z,97434.88
2023-03-06T05:07:50.365Z,97432.53
2023-03-06T05:10:19.147Z,97430.01
2023-03-06T05:12:46.697Z,97430.64
2023-03-06T05:15:14.723Z,97427.79
2023-03-06T05:17:42.467Z,97422.25
2023-03-06T05:20:12.136Z,97417.88
2023-03-06T05:22:40.099Z,97414.81
2023-03-06T05:25:08.316Z,97411.04
2023-03-06T05:27:36.293Z,97409.27
2023-03-06T05:30:04.780Z,97412.17
2023-03-06T05:32:34.462Z,97414.23
2023-03-06T05:35:04.381Z,97415.96
2023-03-06T05:37:32.593Z,97417.33
2023-03-06T05:40:00.337Z,97416.36
2023-03-06T05:42:31.002Z,97410.38
2023-03-06T05:44:58.608Z,97408.73
2023-03-06T05:47:26.163Z,97408.91
2023-03-06T05:49:53.654Z,97403.36
2023-03-06T05:52:21.291Z,97405.16
2023-03-06T05:54:53.934Z,97401.61
2023-03-06T05:57:22.991Z,97402.08
2023-03-06T05:59:51.128Z,97403.56
2023-03-06T06:02:18.961Z,97408.23
2023-03-06T06:04:46.658Z,97402.84
2023-03-06T06:07:15.699Z,97405.80
2023-03-06T06:09:44.563Z,97407.25
2023-03-06T06:12:13.248Z,97401.20
2023-03-06T06:14:40.880Z,97403.70
2023-03-06T06:17:08.468Z,97403.23
2023-03-06T06:19:36.062Z,97404.14
2023-03-06T06:22:03.720Z,97404.34
2023-03-06T06:24:31.957Z,97405.55
2023-03-06T06:27:02.012Z,97407.23
2023-03-06T06:29:32.148Z,97405.50
2023-03-06T06:32:00.553Z,97408.88
2023-03-06T06:34:28.606Z,97413.13
2023-03-06T06:36:56.176Z,97417.06
2023-03-06T06:39:24.892Z,97417.64
2023-03-06T06:42:14.678Z,97418.70
2023-03-06T06:44:40.007Z,97423.36
2023-03-06T06:47:25.406Z,97422.63
2023-03-06T06:49:55.403Z,97420.20
2023-03-06T06:52:26.228Z,97417.91
2023-03-06T06:54:53.877Z,97415.29
2023-03-06T06:57:21.489Z,97414.28
2023-03-06T06:59:50.203Z,97418.02
2023-03-06T07:02:19.263Z,97412.31
2023-03-06T07:05:02.516Z,97408.13
2023-03-06T07:07:34.702Z,97410.32
2023-03-06T07:10:11.117Z,97409.34
2023-03-06T07:12:38.674Z,97413.63
2023-03-06T07:15:06.886Z,97411.52
2023-03-06T07:17:34.675Z,97414.73
2023-03-06T07:20:02.387Z,97412.70
2023-03-06T07:22:33.862Z,97412.65
2023-03-06T07:25:09.597Z,97411.63
2023-03-06T07:27:37.298Z,97414.53
2023-03-06T07:30:05.891Z,97416.41
2023-03-06T07:32:33.543Z,97420.96
2023-03-06T07:35:19.036Z,97421.44
2023-03-06T07:37:47.569Z,97427.00
2023-03-06T07:40:15.284Z,97427.57
2023-03-06T07:42:43.314Z,97427.98
2023-03-06T07:45:11.971Z,97428.12
2023-03-06T07:47:40.492Z,97425.52
2023-03-06T07:50:08.939Z,97432.52
2023-03-06T07:52:36.557Z,97433.63
2023-03-06T07:55:04.442Z,97433.67
2023-03-06T07:57:32.001Z,97437.02
2023-03-06T07:59:59.551Z,97432.58
2023-03-06T08:02:27.142Z,97433.27
2023-03-06T08:04:55.611Z,97437.02
2023-03-06T08:07:23.861Z,97439.05
2023-03-06T08:09:51.385Z,97435.52
2023-03-06T08:12:18.943Z,97433.31
2023-03-06T08:14:46.516Z,97433.27
2023-03-06T08:17:14.215Z,97435.38
2023-03-06T08:19:41.784Z,97435.81
2023-03-06T08:22:09.378Z,97435.45
2023-03-06T08:24:37.062Z,97434.16
2023-03-06T08:27:04.681Z,97435.11
2023-03-06T08:29:32.427Z,97437.64
2023-03-06T08:32:00.009Z,97439.17
2023-03-06T08:34:27.729Z,97436.91
2023-03-06T08:36:55.281Z,97439.20
2023-03-06T08:39:22.844Z,97440.29
2023-03-06T08:41:50.446Z,97439.08
2023-03-06T08:44:18.027Z,97438.06
2023-03-06T08:46:45.649Z,97433.70
2023-03-06T08:49:13.776Z,97436.47
2023-03-06T08:51:41.474Z,97439.48
2023-03-06T08:54:12.452Z,97440.43
2023-03-06T08:56:40.066Z,97439.64
2023-03-06T08:59:07.612Z,97443.12
2023-03-06T09:01:37.554Z,97441.38
2023-03-06T09:04:08.680Z,97439.20
2023-03-06T09:06:40.267Z,97443.65
2023-03-06T09:09:08.838Z,97449.28
2023-03-06T09:11:36.935Z,97443.93
2023-03-06T09:14:05.715Z,97442.98
2023-03-06T09:16:33.459Z,97442.84
2023-03-06T09:19:01.127Z,97439.36
2023-03-06T09:21:28.795Z,97444.78
2023-03-06T09:23:56.568Z,97441.78
2023-03-06T09:26:32.833Z,97441.50
2023-03-06T09:29:07.736Z,97441.69
2023-03-06T09:31:35.276Z,97443.52
2023-03-06T09:34:02.911Z,97439.71
2023-03-06T09:36:30.533Z,97444.20
2023-03-06T09:38:58.091Z,97439.48
2023-03-06T09:41:35.507Z,97441.71
2023-03-06T09:44:16.068Z,97439.53
2023-03-06T09:46:59.140Z,97437.73
2023-03-06T09:49:44.602Z,97432.38
2023-03-06T09:52:49.069Z,97424.64
2023-03-06T09:55:20.397Z,97419.95
2023-03-06T09:58:25.036Z,97422.88
2023-03-06T10:00:59.688Z,97418.52
2023-03-06T10:03:30.274Z,97414.71
2023-03-06T10:06:33.177Z,97421.88
2023-03-06T10:09:06.681Z,97418.17
2023-03-06T10:11:37.933Z,97419.69
2023-03-06T10:14:28.381Z,97418.25
2023-03-06T10:16:55.989Z,97414.42
2023-03-06T10:19:30.612Z,97410.88
2023-03-06T10:22:44.785Z,97404.82
2023-03-06T10:25:20.012Z,97403.80
2023-03-06T10:27:58.068Z,97402.51
2023-03-06T10:30:48.014Z,97398.87
2023-03-06T10:33:45.899Z,97396.77
2023-03-06T10:36:19.118Z,97395.20
2023-03-06T10:38:47.914Z,97397.48
2023-03-06T10:41:30.545Z,97394.83
2023-03-06T10:44:01.195Z,97391.99
2023-03-06T10:46:30.325Z,97389.73
2023-03-06T10:49:06.629Z,97389.27
2023-03-06T10:51:34.449Z,97383.56
2023-03-06T10:54:19.689Z,97382.27
2023-03-06T10:56:47.549Z,97378.92
2023-03-06T10:59:16.548Z,97369.34
2023-03-06T11:01:50.480Z,97364.83
2023-03-06T11:04:23.460Z,97362.52
2023-03-06T11:07:21.902Z,97362.44
2023-03-06T11:09:58.390Z,97351.46
2023-03-06T11:12:39.382Z,97351.13
2023-03-06T11:15:08.290Z,97348.77
2023-03-06T11:18:07.491Z,97346.77
2023-03-06T11:20:55.526Z,97344.44
2023-03-06T11:23:40.745Z,97344.27
2023-03-06T11:26:17.458Z,97337.77
2023-03-06T11:28:45.056Z,97341.75
2023-03-06T11:31:18.079Z,97339.05
2023-03-06T11:33:54.134Z,97337.40
2023-03-06T11:36:25.260Z,97334.85
2023-03-06T11:38:54.320Z,97334.81
2023-03-06T11:41:30.943Z,97328.52
2023-03-06T11:44:12.529Z,97328.29
2023-03-06T11:46:45.088Z,97321.13
2023-03-06T11:49:33.331Z,97322.92
2023-03-06T11:52:09.961Z,97320.45
2023-03-06T11:54:37.527Z,97312.38
2023-03-06T11:57:14.574Z,97308.42
2023-03-06T11:59:42.071Z,97307.08
2023-03-06T12:02:28.000Z,97308.83
2023-03-06T12:05:33.620Z,97305.41
2023-03-06T12:08:19.838Z,97299.91
2023-03-06T12:10:52.433Z,97294.30
2023-03-06T12:13:30.605Z,97287.23
2023-03-06T12:16:36.045Z,97287.48
2023-03-06T12:19:25.521Z,97282.13
2023-03-06T12:22:22.262Z,97281.33
2023-03-06T12:25:22.192Z,97273.41
2023-03-06T12:27:56.196Z,97263.44
2023-03-06T12:30:40.559Z,97261.80
2023-03-06T12:33:23.003Z,97259.49
2023-03-06T12:35:55.600Z,97257.55
2023-03-06T12:38:47.264Z,97254.18
2023-03-06T12:41:42.733Z,97255.29
2023-03-06T12:44:27.049Z,97253.80
2023-03-06T12:46:59.459Z,97254.32
2023-03-06T12:49:32.843Z,97252.72
2023-03-06T12:52:02.058Z,97246.23
2023-03-06T12:54:32.286Z,97246.36
2023-03-06T12:57:00.662Z,97241.81
2023-03-06T12:59:38.470Z,97233.73
2023-03-06T13:02:25.073Z,97229.80
2023-03-06T13:05:04.647Z,97230.70
2023-03-06T13:07:50.739Z,97229.34
2023-03-06T13:10:32.868Z,97222.32
2023-03-06T13:13:00.355Z,97225.20
2023-03-06T13:15:41.792Z,97224.48
2023-03-06T13:18:21.404Z,97221.08
2023-03-06T13:20:50.769Z,97213.52
2023-03-06T13:23:30.623Z,97213.56
2023-03-06T13:26:00.501Z,97213.98
2023-03-06T13:28:47.460Z,97211.14
2023-03-06T13:31:28.296Z,97204.77
2023-03-06T13:34:04.051Z,97211.70
2023-03-06T13:36:39.450Z,97213.88
2023-03-06T13:39:09.325Z,97205.98
2023-03-06T13:41:41.646Z,97204.55
2023-03-06T13:44:24.514Z,97207.38
2023-03-06T13:47:06.500Z,97206.73
2023-03-06T13:49:35.183Z,97202.85
2023-03-06T13:52:02.660Z,97205.45
2023-03-06T13:54:42.283Z,97205.68
2023-03-06T13:57:30.972Z,97207.22
2023-03-06T14:00:34.501Z,97200.51
2023-03-06T14:03:21.071Z,97202.31
2023-03-06T14:05:50.786Z,97195.91
2023-03-06T14:08:32.980Z,97197.56
2023-03-06T14:11:20.507Z,97195.69
2023-03-06T14:13:56.654Z,97188.28
2023-03-06T14:16:40.484Z,97185.92
2023-03-06T14:19:17.287Z,97187.00
2023-03-06T14:21:44.793Z,97185.68
2023-03-06T14:24:18.231Z,97186.83
2023-03-06T14:26:51.860Z,97188.45
2023-03-06T14:29:22.196Z,97177.27
2023-03-06T14:31:52.646Z,97186.55
2023-03-06T14:34:24.369Z,97184.36
2023-03-06T14:36:54.845Z,97186.02
2023-03-06T14:39:31.738Z,97185.16
2023-03-06T14:42:17.479Z,97187.71
2023-03-06T14:44:45.994Z,97177.64
2023-03-06T14:47:25.201Z,97188.89
2023-03-06T14:50:17.483Z,97189.16
2023-03-06T14:52:45.815Z,97205.23
2023-03-06T14:55:23.144Z,97216.60
2023-03-06T14:58:16.452Z,97216.31
2023-03-06T15:00:48.630Z,97219.39
2023-03-06T15:03:34.209Z,97224.83
2023-03-06T15:06:02.970Z,97214.50
2023-03-06T15:08:33.292Z,97224.66
2023-03-06T15:11:06.352Z,97221.30
2023-03-06T15:13:34.381Z,97221.17
2023-03-06T15:16:04.502Z,97220.11
2023-03-06T15:18:54.176Z,97222.70
2023-03-06T15:21:23.925Z,97223.02
2023-03-06T15:23:53.751Z,97221.70
2023-03-06T15:26:37.107Z,97222.00
2023-03-06T15:29:11.109Z,97224.34
2023-03-06T15:31:44.525Z,97221.33
2023-03-06T15:34:12.040Z,97220.32
2023-03-06T15:36:46.821Z,97216.38
2023-03-06T15:39:32.676Z,97218.29
2023-03-06T15:42:14.572Z,97223.09
2023-03-06T15:44:42.610Z,97231.66
2023-03-06T15:47:13.265Z,97239.02
2023-03-06T15:49:40.831Z,97241.95
2023-03-06T15:52:09.166Z,97241.29
2023-03-06T15:54:36.920Z,97240.99
2023-03-06T15:57:06.880Z,97241.34
2023-03-06T15:59:41.712Z,97239.30
2023-03-06T16:02:16.613Z,97235.23
2023-03-06T16:04:45.337Z,97237.65
2023-03-06T16:07:13.360Z,97237.42
2023-03-06T16:09:42.181Z,97234.35
2023-03-06T16:12:18.715Z,97232.44
2023-03-06T16:14:47.542Z,97231.73
2023-03-06T16:17:15.965Z,97229.82
2023-03-06T16:19:44.046Z,97227.39
2023-03-06T16:22:11.936Z,97229.35
2023-03-06T16:24:39.534Z,97226.09
2023-03-06T16:27:07.231Z,97223.48
2023-03-06T16:29:34.781Z,97222.42
2023-03-06T16:32:02.565Z,97220.16
2023-03-06T16:34:30.261Z,97221.60
2023-03-06T16:36:57.856Z,97221.39
2023-03-06T16:39:25.447Z,97224.12
2023-03-06T16:41:53.288Z,97223.16
2023-03-06T16:44:21.180Z,97224.23
2023-03-06T16:46:50.084Z,97222.08
2023-03-06T16:49:21.500Z,97219.77
2023-03-06T16:51:49.589Z,97217.60
2023-03-06T16:54:17.862Z,97217.45
2023-03-06T16:56:46.096Z,97209.77
2023-03-06T16:59:13.668Z,97210.98
2023-03-06T17:01:41.884Z,97211.02
2023-03-06T17:04:09.719Z,97214.08
2023-03-06T17:06:37.373Z,97223.68
2023-03-06T17:09:05.282Z,97224.19
2023-03-06T17:11:33.046Z,97231.93
2023-03-06T17:14:01.732Z,97232.26
2023-03-06T17:16:29.354Z,97232.06
2023-03-06T17:18:57.204Z,97232.23
2023-03-06T17:21:25.214Z,97237.11
2023-03-06T17:23:52.764Z,97238.47
2023-03-06T17:26:20.335Z,97239.38
2023-03-06T17:28:48.374Z,97236.95
2023-03-06T17:31:22.261Z,97235.20
2023-03-06T17:33:50.634Z,97235.79
2023-03-06T17:36:18.422Z,97231.62
2023-03-06T17:38:46.304Z,97232.71
2023-03-06T17:41:14.549Z,97232.44
2023-03-06T17:43:42.223Z,97229.50
2023-03-06T17:46:12.574Z,97226.87
2023-03-06T17:48:40.432Z,97222.70
2023-03-06T17:51:08.707Z,97228.85
2023-03-06T17:53:36.566Z,97230.60
2023-03-06T17:56:09.571Z,97228.35
2023-03-06T17:58:37.102Z,97232.09
2023-03-06T18:01:19.846Z,97232.45
2023-03-06T18:03:49.944Z,97234.72
2023-03-06T18:06:18.293Z,97237.93
2023-03-06T18:08:46.013Z,97241.14
2023-03-06T18:11:14.347Z,97239.30
2023-03-06T18:13:44.446Z,97245.32
2023-03-06T18:16:13.806Z,97246.33
2023-03-06T18:18:41.573Z,97244.33
2023-03-06T18:21:12.279Z,97243.84
2023-03-06T18:23:41.552Z,97244.88
2023-03-06T18:26:18.391Z,97249.11
2023-03-06T18:28:48.936Z,97245.94
2023-03-06T18:31:19.362Z,97249.35
2023-03-06T18:33:48.563Z,97249.06
2023-03-06T18:36:16.592Z,97246.91
2023-03-06T18:38:44.679Z,97249.79
2023-03-06T18:41:13.657Z,97248.64
2023-03-06T18:43:41.258Z,97248.55
2023-03-06T18:46:09.494Z,97247.71
2023-03-06T18:48:37.359Z,97249.95
2023-03-06T18:51:06.598Z,97246.11
2023-03-06T18:53:35.318Z,97248.46
2023-03-06T18:56:04.728Z,97247.34
2023-03-06T18:58:32.709Z,97245.58
2023-03-06T19:01:08.533Z,97244.48
2023-03-06T19:03:36.512Z,97243.19
2023-03-06T19:06:10.429Z,97241.21
2023-03-06T19:08:39.542Z,97238.23
2023-03-06T19:11:09.950Z,97238.30
2023-03-06T19:13:37.560Z,97242.55
2023-03-06T19:16:06.365Z,97241.77
2023-03-06T19:18:34.347Z,97241.44
2023-03-06T19:21:14.039Z,97236.90
2023-03-06T19:23:42.399Z,97237.09
2023-03-06T19:26:11.039Z,97233.74
2023-03-06T19:28:40.392Z,97236.95
2023-03-06T19:31:14.341Z,97234.77
2023-03-06T19:33:43.079Z,97230.89
2023-03-06T19:36:13.493Z,97228.38
2023-03-06T19:38:41.871Z,97225.02
2023-03-06T19:41:13.956Z,97224.57
2023-03-06T19:43:42.763Z,97222.56
2023-03-06T19:46:12.296Z,97219.89
2023-03-06T19:48:41.335Z,97215.88
2023-03-06T19:51:09.787Z,97217.05
2023-03-06T19:53:37.880Z,97217.05
2023-03-06T19:56:15.758Z,97215.36
2023-03-06T19:58:43.440Z,97210.98
2023-03-06T20:01:19.580Z,97213.31
2023-03-06T20:03:47.232Z,97211.58
2023-03-06T20:06:19.683Z,97212.88
2023-03-06T20:08:47.660Z,97214.69
2023-03-06T20:11:18.123Z,97216.66
2023-03-06T20:13:47.306Z,97216.78
2023-03-06T20:16:17.238Z,97217.11
2023-03-06T20:18:45.460Z,97216.08
2023-03-06T20:21:16.404Z,97217.80
2023-03-06T20:23:44.048Z,97213.30
2023-03-06T20:26:13.291Z,97217.38
2023-03-06T20:28:42.826Z,97220.61
2023-03-06T20:31:13.880Z,97218.83
2023-03-06T20:33:41.669Z,97217.68
2023-03-06T20:36:19.484Z,97214.88
2023-03-06T20:38:47.327Z,97216.08
2023-03-06T20:41:21.618Z,97217.33
2023-03-06T20:43:49.978Z,97218.52
2023-03-06T20:46:19.114Z,97217.37
2023-03-06T20:48:51.597Z,97217.52
2023-03-06T20:51:20.713Z,97220.17
2023-03-06T20:53:49.981Z,97219.63
2023-03-06T20:56:19.886Z,97222.64
2023-03-06T20:58:47.454Z,97222.83
2023-03-06T21:01:23.387Z,97219.85
2023-03-06T21:03:51.513Z,97222.05
2023-03-06T21:06:19.975Z,97219.26
2023-03-06T21:08:47.536Z,97216.64
2023-03-06T21:11:15.908Z,97213.33
2023-03-06T21:13:44.173Z,97214.92
2023-03-06T21:16:18.618Z,97214.50
2023-03-06T21:18:46.761Z,97215.28
2023-03-06T21:21:18.951Z,97213.37
2023-03-06T21:23:47.782Z,97212.11
2023-03-06T21:26:21.042Z,97210.34
2023-03-06T21:28:49.146Z,97211.03
2023-03-06T21:31:18.650Z,97208.04
2023-03-06T21:33:47.789Z,97210.58
2023-03-06T21:36:15.737Z,97210.61
2023-03-06T21:38:43.410Z,97211.81
2023-03-06T21:41:14.293Z,97214.02
2023-03-06T21:43:42.180Z,97212.91
2023-03-06T21:46:10.512Z,97207.36
2023-03-06T21:48:38.554Z,97208.73
2023-03-06T21:51:12.614Z,97209.83
2023-03-06T21:53:44.062Z,97207.69
2023-03-06T21:56:12.795Z,97204.06
2023-03-06T21:58:40.442Z,97206.48
2023-03-06T22:01:09.755Z,97206.23
2023-03-06T22:03:37.494Z,97207.64
2023-03-06T22:06:16.817Z,97209.36
2023-03-06T22:08:45.036Z,97207.09
2023-03-06T22:11:15.210Z,97207.34
2023-03-06T22:13:43.459Z,97206.39
2023-03-06T22:16:11.522Z,97202.92
2023-03-06T22:18:39.593Z,97196.95
2023-03-06T22:21:09.287Z,97199.70
2023-03-06T22:23:36.838Z,97198.79
2023-03-06T22:26:06.596Z,97195.67
2023-03-06T22:28:34.252Z,97193.94
2023-03-06T22:31:07.182Z,97192.86
2023-03-06T22:33:35.479Z,97196.92
2023-03-06T22:36:08.980Z,97193.98
2023-03-06T22:38:39.689Z,97194.09
2023-03-06T22:41:08.352Z,97194.11
2023-03-06T22:43:36.951Z,97195.32
2023-03-06T22:46:07.684Z,97194.35
2023-03-06T22:48:35.350Z,97192.36
2023-03-06T22:51:05.195Z,97192.52
2023-03-06T22:53:33.604Z,97192.48
2023-03-06T22:56:03.600Z,97190.75
2023-03-06T22:58:33.356Z,97188.01
2023-03-06T23:01:12.957Z,97189.60
2023-03-06T23:03:46.152Z,97190.02
2023-03-06T23:06:18.573Z,97190.09
2023-03-06T23:08:52.327Z,97187.98
2023-03-06T23:11:21.146Z,97187.06
2023-03-06T23:13:48.926Z,97188.36
2023-03-06T23:16:16.520Z,97186.52
2023-03-06T23:18:44.248Z,97187.89
2023-03-06T23:21:16.942Z,97186.60
2023-03-06T23:23:48.884Z,97187.10
2023-03-06T23:26:18.147Z,97185.59
2023-03-06T23:28:45.770Z,97184.52
2023-03-06T23:31:19.737Z,97182.34
2023-03-06T23:33:47.357Z,97187.21
2023-03-06T23:36:16.726Z,97185.73
2023-03-06T23:38:44.692Z,97185.92
2023-03-06T23:41:14.625Z,97189.11
2023-03-06T23:43:42.743Z,97190.61
2023-03-06T23:46:11.008Z,97191.80
2023-03-06T23:48:39.852Z,97188.44
2023-03-06T23:51:19.596Z,97189.98
2023-03-06T23:53:48.369Z,97188.96
2023-03-06T23:56:15.955Z,97191.11
2023-03-06T23:58:43.761Z,97190.72
